Time;durP1;ratioP1;P1;durP2;ratioP2;P2;SDS_P1;SDS_P2;PMS_P1;PMS_P2;Temp;Humidity;BMP_temperature;BMP_pressure;BME280_temperature;BME280_humidity;BME280_pressure;Samples;Min_cycle;Max_cycle;Signal;HPM_P1;HPM_P2
2021/06/24 00:00:41;;;;;;;;;;;16.70;76.30;;;;;;5014221;28;20298;-61
2021/06/24 00:03:07;;;;;;;;;;;16.70;76.30;;;;;;5013439;28;19948;-62
2021/06/24 00:05:32;;;;;;;;;;;16.70;76.30;;;;;;5014062;28;19918;-62
2021/06/24 00:07:58;;;;;;;;;;;16.70;76.30;;;;;;5013711;28;19921;-61
2021/06/24 00:10:24;;;;;;;;;;;16.70;76.30;;;;;;5013422;28;19918;-61
2021/06/24 00:12:49;;;;;;;;;;;16.70;76.30;;;;;;5013614;28;19922;-61
2021/06/24 00:15:15;;;;;;;;;;;16.70;76.40;;;;;;5013472;28;19918;-61
2021/06/24 00:17:40;;;;;;;;;;;16.70;76.60;;;;;;5013468;28;19921;-61
2021/06/24 00:20:06;;;;;;;;;;;16.70;76.50;;;;;;5013958;28;19917;-61
2021/06/24 00:22:32;;;;;;;;;;;16.60;76.50;;;;;;5013236;28;19976;-62
2021/06/24 00:24:58;;;;;;;;;;;16.60;76.60;;;;;;4996315;28;19941;-61
2021/06/24 00:27:23;;;;;;;;;;;16.60;76.70;;;;;;5013422;28;20336;-62
2021/06/24 00:29:49;;;;;;;;;;;16.60;76.70;;;;;;5012059;28;20009;-61
2021/06/24 00:32:14;;;;;;;;;;;16.60;76.70;;;;;;5012512;28;19928;-62
2021/06/24 00:34:40;;;;;;;;;;;16.50;76.90;;;;;;5013280;28;20020;-62
2021/06/24 00:37:05;;;;;;;;;;;16.50;77.00;;;;;;5013381;28;19972;-61
2021/06/24 00:39:31;;;;;;;;;;;16.50;77.10;;;;;;4996004;28;19917;-61
2021/06/24 00:41:57;;;;;;;;;;;16.50;77.10;;;;;;5012859;28;20277;-62
2021/06/24 00:44:22;;;;;;;;;;;16.50;77.20;;;;;;4996396;28;19983;-64
2021/06/24 00:46:51;;;;;;;;;;;16.50;77.20;;;;;;5012533;28;19971;-64
2021/06/24 00:49:19;;;;;;;;;;;16.50;77.20;;;;;;4995720;28;20003;-64
2021/06/24 00:51:44;;;;;;;;;;;16.50;77.30;;;;;;5013077;28;19921;-64
2021/06/24 00:54:10;;;;;;;;;;;16.50;77.30;;;;;;4995212;28;20275;-64
2021/06/24 00:56:36;;;;;;;;;;;16.50;77.30;;;;;;4995437;28;19913;-64
2021/06/24 00:59:02;;;;;;;;;;;16.40;77.30;;;;;;5013004;28;19922;-64
2021/06/24 01:01:29;;;;;;;;;;;16.40;77.40;;;;;;4994905;28;20008;-64
2021/06/24 01:03:55;;;;;;;;;;;16.40;77.50;;;;;;4995471;28;20307;-64
2021/06/24 01:06:22;;;;;;;;;;;16.40;77.70;;;;;;4995155;28;20341;-63
2021/06/24 01:08:49;;;;;;;;;;;16.40;77.70;;;;;;4995095;28;20297;-64
2021/06/24 01:11:18;;;;;;;;;;;16.40;77.60;;;;;;5012951;28;19944;-64
2021/06/24 01:13:44;;;;;;;;;;;16.40;77.80;;;;;;5012381;28;19922;-62
2021/06/24 01:16:11;;;;;;;;;;;16.40;77.80;;;;;;4995229;28;20004;-64
2021/06/24 01:18:37;;;;;;;;;;;16.40;77.80;;;;;;5012481;28;19917;-64
2021/06/24 01:21:03;;;;;;;;;;;16.40;77.80;;;;;;5012283;28;20430;-64
2021/06/24 01:23:29;;;;;;;;;;;16.40;77.90;;;;;;5012566;28;19921;-64
2021/06/24 01:25:57;;;;;;;;;;;16.40;77.90;;;;;;5012234;28;19918;-64
2021/06/24 01:28:23;;;;;;;;;;;16.30;77.70;;;;;;5012232;28;20371;-64
2021/06/24 01:30:48;;;;;;;;;;;16.30;77.90;;;;;;4994963;28;20000;-64
2021/06/24 01:33:14;;;;;;;;;;;16.30;78.00;;;;;;4994438;28;19940;-64
2021/06/24 01:35:41;;;;;;;;;;;16.30;78.20;;;;;;5012485;28;20267;-64
2021/06/24 01:38:09;;;;;;;;;;;16.30;78.20;;;;;;5011725;28;19993;-64
2021/06/24 01:40:38;;;;;;;;;;;16.20;78.20;;;;;;4994850;28;20018;-64
2021/06/24 01:43:04;;;;;;;;;;;16.20;78.20;;;;;;5012114;28;19925;-64
2021/06/24 01:45:31;;;;;;;;;;;16.20;78.30;;;;;;4994316;28;20377;-64
2021/06/24 01:47:56;;;;;;;;;;;16.20;78.40;;;;;;5011909;28;19925;-64
2021/06/24 01:50:22;;;;;;;;;;;16.20;78.50;;;;;;5012176;28;19918;-65
2021/06/24 01:52:49;;;;;;;;;;;16.20;78.50;;;;;;4994064;28;20300;-64
2021/06/24 01:55:18;;;;;;;;;;;16.20;78.60;;;;;;5012190;28;19917;-64
2021/06/24 01:57:52;;;;;;;;;;;16.20;78.60;;;;;;4994036;28;20301;-64
2021/06/24 02:00:42;;;;;;;;;;;16.20;78.60;;;;;;5012011;28;19960;-64
2021/06/24 02:03:16;;;;;;;;;;;16.20;78.80;;;;;;4994157;28;20004;-64
2021/06/24 02:05:42;;;;;;;;;;;16.20;78.90;;;;;;5011953;28;19917;-64
2021/06/24 02:08:13;;;;;;;;;;;16.10;78.90;;;;;;4993605;28;20439;-64
2021/06/24 02:11:01;;;;;;;;;;;16.10;78.90;;;;;;4994422;28;19918;-64
2021/06/24 02:13:27;;;;;;;;;;;16.10;79.00;;;;;;4993813;28;20379;-63
2021/06/24 02:15:53;;;;;;;;;;;16.10;79.10;;;;;;4994256;28;19989;-64
2021/06/24 02:18:19;;;;;;;;;;;16.20;79.10;;;;;;5011076;28;19925;-65
2021/06/24 02:20:47;;;;;;;;;;;16.10;79.10;;;;;;4994209;28;19917;-64
2021/06/24 02:23:26;;;;;;;;;;;16.10;79.30;;;;;;4993818;28;19918;-64
2021/06/24 02:26:02;;;;;;;;;;;16.10;79.30;;;;;;4994249;28;20149;-64
2021/06/24 02:28:37;;;;;;;;;;;16.10;79.30;;;;;;4993492;28;19990;-64
2021/06/24 02:31:09;;;;;;;;;;;16.10;79.40;;;;;;4994063;28;20020;-64
2021/06/24 02:33:36;;;;;;;;;;;16.10;79.40;;;;;;5011255;28;19963;-64
2021/06/24 02:36:16;;;;;;;;;;;16.10;79.40;;;;;;4994127;28;19992;-64
2021/06/24 02:38:42;;;;;;;;;;;16.00;79.40;;;;;;5010994;28;20006;-64
2021/06/24 02:41:08;;;;;;;;;;;16.00;79.40;;;;;;4994058;28;20370;-64
2021/06/24 02:43:36;;;;;;;;;;;16.00;79.50;;;;;;4993830;28;20008;-64
2021/06/24 02:46:02;;;;;;;;;;;16.00;79.70;;;;;;4993553;28;20008;-64
2021/06/24 02:48:38;;;;;;;;;;;16.00;79.80;;;;;;4993885;28;19996;-64
2021/06/24 02:51:04;;;;;;;;;;;16.00;79.90;;;;;;5011306;28;20008;-64
2021/06/24 02:53:37;;;;;;;;;;;16.00;79.90;;;;;;4978816;28;19922;-64
2021/06/24 02:56:06;;;;;;;;;;;15.90;79.70;;;;;;5013811;28;19917;-64
2021/06/24 02:58:41;;;;;;;;;;;15.90;79.90;;;;;;4997531;28;19975;-64
2021/06/24 03:01:16;;;;;;;;;;;15.90;80.00;;;;;;4997469;28;19917;-64
2021/06/24 03:03:52;;;;;;;;;;;15.90;80.10;;;;;;4997603;28;20301;-64
2021/06/24 03:06:21;;;;;;;;;;;16.00;80.10;;;;;;5014681;28;20401;-64
2021/06/24 03:08:47;;;;;;;;;;;15.90;80.00;;;;;;5014968;28;19929;-65
2021/06/24 03:11:18;;;;;;;;;;;15.90;80.10;;;;;;5015168;28;19925;-64
2021/06/24 03:13:49;;;;;;;;;;;15.90;80.00;;;;;;4996953;28;19943;-64
2021/06/24 03:16:18;;;;;;;;;;;15.90;80.10;;;;;;4997528;28;19937;-64
2021/06/24 03:18:46;;;;;;;;;;;15.90;80.20;;;;;;5014220;28;19913;-63
2021/06/24 03:21:12;;;;;;;;;;;15.90;80.10;;;;;;4997454;28;19918;-63
2021/06/24 03:23:37;;;;;;;;;;;15.90;80.10;;;;;;4997201;28;20301;-64
2021/06/24 03:26:03;;;;;;;;;;;15.90;80.20;;;;;;4997458;28;19944;-64
2021/06/24 03:28:30;;;;;;;;;;;15.90;80.20;;;;;;4996861;28;19917;-64
2021/06/24 03:31:25;;;;;;;;;;;15.90;80.20;;;;;;5005555;28;19968;-64
2021/06/24 03:33:51;;;;;;;;;;;15.80;80.10;;;;;;5014738;28;19924;-64
2021/06/24 03:36:18;;;;;;;;;;;15.80;80.10;;;;;;5014721;28;19918;-64
2021/06/24 03:38:46;;;;;;;;;;;15.80;80.60;;;;;;5013889;28;19964;-64
2021/06/24 03:41:15;;;;;;;;;;;15.70;80.10;;;;;;4997184;28;19963;-64
2021/06/24 03:43:42;;;;;;;;;;;15.70;80.30;;;;;;4996205;28;20389;-64
2021/06/24 03:46:08;;;;;;;;;;;15.70;80.60;;;;;;5014579;28;20056;-64
2021/06/24 03:48:35;;;;;;;;;;;15.70;80.70;;;;;;5014237;28;19960;-64
2021/06/24 03:51:11;;;;;;;;;;;15.70;80.80;;;;;;4996801;28;19918;-64
2021/06/24 03:53:36;;;;;;;;;;;15.80;81.00;;;;;;4996716;28;20056;-64
2021/06/24 03:56:03;;;;;;;;;;;15.80;81.00;;;;;;5014054;28;20287;-64
2021/06/24 03:58:39;;;;;;;;;;;15.90;81.00;;;;;;4996374;28;20001;-64
2021/06/24 04:01:06;;;;;;;;;;;15.90;80.90;;;;;;5013878;28;20349;-64
2021/06/24 04:03:32;;;;;;;;;;;16.00;81.00;;;;;;5014201;28;20037;-64
2021/06/24 04:06:02;;;;;;;;;;;16.00;81.00;;;;;;4980225;28;19925;-64
2021/06/24 04:08:28;;;;;;;;;;;16.00;80.90;;;;;;5012896;28;19918;-64
2021/06/24 04:10:53;;;;;;;;;;;16.10;81.00;;;;;;5014047;28;20308;-64
2021/06/24 04:13:20;;;;;;;;;;;16.10;81.00;;;;;;4996422;28;19925;-64
2021/06/24 04:15:46;;;;;;;;;;;16.10;81.00;;;;;;4995964;28;19955;-64
2021/06/24 04:18:12;;;;;;;;;;;16.20;81.00;;;;;;4996104;28;19965;-64
2021/06/24 04:20:43;;;;;;;;;;;16.20;80.90;;;;;;5013485;28;19921;-64
2021/06/24 04:23:09;;;;;;;;;;;16.20;80.80;;;;;;5013820;28;19928;-64
2021/06/24 04:25:47;;;;;;;;;;;16.30;80.90;;;;;;5013480;28;20341;-64
2021/06/24 04:28:14;;;;;;;;;;;16.30;80.90;;;;;;4995806;28;19949;-64
2021/06/24 04:30:53;;;;;;;;;;;16.30;80.60;;;;;;4995567;28;19972;-64
2021/06/24 04:33:18;;;;;;;;;;;16.40;80.60;;;;;;4995962;28;19925;-64
2021/06/24 04:36:04;;;;;;;;;;;16.40;80.70;;;;;;5012534;28;19925;-64
2021/06/24 04:38:30;;;;;;;;;;;16.50;80.50;;;;;;4995750;28;19923;-64
2021/06/24 04:40:56;;;;;;;;;;;16.50;80.40;;;;;;4995421;28;20301;-64
2021/06/24 04:43:28;;;;;;;;;;;16.50;80.30;;;;;;4995681;28;20012;-64
2021/06/24 04:45:53;;;;;;;;;;;16.50;80.20;;;;;;5013326;28;20012;-64
2021/06/24 04:48:20;;;;;;;;;;;16.50;80.20;;;;;;5012609;28;19914;-64
2021/06/24 04:50:55;;;;;;;;;;;16.50;80.10;;;;;;4995741;28;19917;-64
2021/06/24 04:53:22;;;;;;;;;;;16.50;80.00;;;;;;5012579;28;19921;-64
2021/06/24 04:56:02;;;;;;;;;;;16.40;79.80;;;;;;5013425;28;19924;-64
2021/06/24 04:58:30;;;;;;;;;;;16.40;80.00;;;;;;4994815;28;19918;-64
2021/06/24 05:01:14;;;;;;;;;;;16.40;80.10;;;;;;5013224;28;20400;-64
2021/06/24 05:04:12;;;;;;;;;;;16.40;80.10;;;;;;4979203;28;20010;-64
2021/06/24 05:06:38;;;;;;;;;;;16.50;80.20;;;;;;5012796;28;19952;-64
2021/06/24 05:09:05;;;;;;;;;;;16.50;80.10;;;;;;5012112;28;19925;-63
2021/06/24 05:11:30;;;;;;;;;;;16.60;80.20;;;;;;4995098;28;19921;-63
2021/06/24 05:13:56;;;;;;;;;;;16.80;80.20;;;;;;5012799;28;20390;-64
2021/06/24 05:16:22;;;;;;;;;;;16.80;80.10;;;;;;5012366;28;19914;-64
2021/06/24 05:18:47;;;;;;;;;;;17.00;79.90;;;;;;5012270;28;19917;-64
2021/06/24 05:21:13;;;;;;;;;;;17.20;80.00;;;;;;5012793;28;19959;-64
2021/06/24 05:23:39;;;;;;;;;;;17.30;79.60;;;;;;5012045;28;19918;-64
2021/06/24 05:26:04;;;;;;;;;;;17.40;79.20;;;;;;5012455;28;20021;-64
2021/06/24 05:28:30;;;;;;;;;;;17.50;78.60;;;;;;5012320;28;19917;-64
2021/06/24 05:30:56;;;;;;;;;;;17.50;78.40;;;;;;5011982;28;19967;-64
2021/06/24 05:33:21;;;;;;;;;;;17.50;78.20;;;;;;5012273;28;19977;-64
2021/06/24 05:35:48;;;;;;;;;;;17.50;77.80;;;;;;5011956;28;19953;-63
2021/06/24 05:38:15;;;;;;;;;;;17.50;77.60;;;;;;5002145;28;20357;-64
2021/06/24 05:40:43;;;;;;;;;;;17.50;78.00;;;;;;5011410;28;20000;-63
2021/06/24 05:43:09;;;;;;;;;;;17.70;78.00;;;;;;5011661;28;20302;-63
2021/06/24 05:45:34;;;;;;;;;;;18.00;78.40;;;;;;5012310;28;19918;-64
2021/06/24 05:48:00;;;;;;;;;;;18.60;80.40;;;;;;5011810;28;20412;-64
2021/06/24 05:50:26;;;;;;;;;;;19.30;80.20;;;;;;5011839;28;19918;-64
2021/06/24 05:52:53;;;;;;;;;;;19.90;79.00;;;;;;5011973;28;20324;-64
2021/06/24 05:55:19;;;;;;;;;;;20.40;77.10;;;;;;5011587;28;19918;-64
2021/06/24 05:57:45;;;;;;;;;;;20.80;76.50;;;;;;5011709;28;20031;-64
2021/06/24 06:00:12;;;;;;;;;;;21.20;75.10;;;;;;4994544;28;19949;-64
2021/06/24 06:02:42;;;;;;;;;;;21.50;73.50;;;;;;5011874;28;19959;-64
2021/06/24 06:05:08;;;;;;;;;;;21.70;72.10;;;;;;5011830;28;19952;-64
2021/06/24 06:07:33;;;;;;;;;;;21.50;69.30;;;;;;5010974;28;19929;-64
2021/06/24 06:09:59;;;;;;;;;;;21.20;68.30;;;;;;5011610;28;20420;-63
2021/06/24 06:12:27;;;;;;;;;;;20.70;67.70;;;;;;5011621;28;19922;-63
2021/06/24 06:14:52;;;;;;;;;;;20.30;67.70;;;;;;4993609;28;19921;-63
2021/06/24 06:17:18;;;;;;;;;;;20.00;68.10;;;;;;5011511;28;19968;-63
2021/06/24 06:19:44;;;;;;;;;;;19.80;68.00;;;;;;5010560;28;19918;-63
2021/06/24 06:22:09;;;;;;;;;;;19.60;67.80;;;;;;5011227;28;19925;-63
2021/06/24 06:24:35;;;;;;;;;;;19.40;67.90;;;;;;5011732;28;20382;-63
2021/06/24 06:27:01;;;;;;;;;;;19.40;68.70;;;;;;5010989;28;19921;-63
2021/06/24 06:29:26;;;;;;;;;;;19.50;68.90;;;;;;5010932;28;20055;-64
2021/06/24 06:31:52;;;;;;;;;;;19.60;68.70;;;;;;5011508;28;19922;-63
2021/06/24 06:34:17;;;;;;;;;;;19.60;68.40;;;;;;5011256;28;20016;-63
2021/06/24 06:36:43;;;;;;;;;;;19.50;68.00;;;;;;5011314;28;20405;-63
2021/06/24 06:39:08;;;;;;;;;;;19.40;67.60;;;;;;5011404;28;19921;-63
2021/06/24 06:41:34;;;;;;;;;;;19.30;67.30;;;;;;5011131;28;20290;-63
2021/06/24 06:43:59;;;;;;;;;;;19.30;67.80;;;;;;5012138;28;19929;-63
2021/06/24 06:46:25;;;;;;;;;;;19.80;71.30;;;;;;5011032;28;20255;-63
2021/06/24 06:48:52;;;;;;;;;;;21.30;75.10;;;;;;5011155;28;20008;-63
2021/06/24 06:51:18;;;;;;;;;;;23.00;74.00;;;;;;5011428;28;19924;-64
2021/06/24 06:53:44;;;;;;;;;;;24.60;72.00;;;;;;5010932;28;19921;-63
2021/06/24 06:56:10;;;;;;;;;;;26.00;68.90;;;;;;5011406;28;19926;-63
2021/06/24 06:58:35;;;;;;;;;;;27.20;66.00;;;;;;5011104;28;19924;-63
2021/06/24 07:01:01;;;;;;;;;;;28.10;62.50;;;;;;5010966;28;19917;-64
2021/06/24 07:03:26;;;;;;;;;;;28.60;58.20;;;;;;5011350;28;19964;-64
2021/06/24 07:05:52;;;;;;;;;;;29.00;56.10;;;;;;5010898;28;19957;-64
2021/06/24 07:08:18;;;;;;;;;;;29.50;55.00;;;;;;5010832;28;19917;-65
2021/06/24 07:10:43;;;;;;;;;;;30.20;53.90;;;;;;5011475;28;19918;-64
2021/06/24 07:13:09;;;;;;;;;;;31.20;52.50;;;;;;5010574;28;19925;-64
2021/06/24 07:15:34;;;;;;;;;;;32.20;50.60;;;;;;5011202;28;19917;-64
2021/06/24 07:18:00;;;;;;;;;;;32.70;47.40;;;;;;5010808;28;19964;-64
2021/06/24 07:20:26;;;;;;;;;;;33.00;44.00;;;;;;5010556;28;19928;-64
2021/06/24 07:22:51;;;;;;;;;;;33.30;43.20;;;;;;5011121;28;20407;-64
2021/06/24 07:25:19;;;;;;;;;;;34.00;42.70;;;;;;5010743;28;19925;-64
2021/06/24 07:27:45;;;;;;;;;;;34.90;40.80;;;;;;5010319;28;20016;-64
2021/06/24 07:30:11;;;;;;;;;;;35.50;39.80;;;;;;5010812;28;20354;-64
2021/06/24 07:32:37;;;;;;;;;;;36.30;38.30;;;;;;5010277;28;19947;-64
2021/06/24 07:35:04;;;;;;;;;;;36.80;37.40;;;;;;5010760;28;20012;-64
2021/06/24 07:37:30;;;;;;;;;;;37.50;36.70;;;;;;5010217;28;20377;-63
2021/06/24 07:39:55;;;;;;;;;;;37.90;33.90;;;;;;5010874;28;20000;-63
2021/06/24 07:42:21;;;;;;;;;;;38.20;33.30;;;;;;5012213;28;20377;-63
2021/06/24 07:44:47;;;;;;;;;;;38.90;33.40;;;;;;5013984;28;20008;-63
2021/06/24 07:47:13;;;;;;;;;;;39.80;33.00;;;;;;5014264;28;20393;-63
2021/06/24 07:49:39;;;;;;;;;;;40.40;31.50;;;;;;5014152;28;19945;-63
2021/06/24 07:52:05;;;;;;;;;;;40.70;30.10;;;;;;5013625;28;20382;-63
2021/06/24 07:54:30;;;;;;;;;;;40.90;29.40;;;;;;5014215;28;19917;-62
2021/06/24 07:56:56;;;;;;;;;;;41.10;28.90;;;;;;5013436;28;19917;-63
2021/06/24 07:59:22;;;;;;;;;;;41.20;28.10;;;;;;5014251;28;19917;-64
2021/06/24 08:01:47;;;;;;;;;;;41.50;27.80;;;;;;5014062;28;19949;-63
2021/06/24 08:04:13;;;;;;;;;;;41.50;27.10;;;;;;5013583;28;20329;-62
2021/06/24 08:06:39;;;;;;;;;;;40.80;26.30;;;;;;5013940;28;20446;-63
2021/06/24 08:09:05;;;;;;;;;;;40.30;26.90;;;;;;5013843;28;19917;-63
2021/06/24 08:11:31;;;;;;;;;;;39.30;26.30;;;;;;5013440;28;19941;-63
2021/06/24 08:13:57;;;;;;;;;;;37.20;26.00;;;;;;5014017;28;20390;-63
2021/06/24 08:16:22;;;;;;;;;;;34.80;26.60;;;;;;5013321;28;19924;-63
2021/06/24 08:18:48;;;;;;;;;;;32.80;27.90;;;;;;4996009;28;20366;-63
2021/06/24 08:21:14;;;;;;;;;;;32.60;30.80;;;;;;5013702;28;19928;-63
2021/06/24 08:23:39;;;;;;;;;;;33.60;30.70;;;;;;5013139;28;19921;-63
2021/06/24 08:26:05;;;;;;;;;;;34.00;30.60;;;;;;5013788;28;19918;-63
2021/06/24 08:28:31;;;;;;;;;;;34.90;30.40;;;;;;4995309;28;19918;-63
2021/06/24 08:30:59;;;;;;;;;;;35.20;30.00;;;;;;4996028;28;20313;-63
2021/06/24 08:33:25;;;;;;;;;;;36.90;30.70;;;;;;5013228;28;20329;-63
2021/06/24 08:35:51;;;;;;;;;;;38.00;29.30;;;;;;5013019;28;19918;-63
2021/06/24 08:38:17;;;;;;;;;;;39.30;29.10;;;;;;5013063;28;19918;-63
2021/06/24 08:40:43;;;;;;;;;;;41.10;28.60;;;;;;5012970;28;19925;-64
2021/06/24 08:43:09;;;;;;;;;;;42.30;27.10;;;;;;5010862;28;19952;-63
2021/06/24 08:45:37;;;;;;;;;;;42.00;25.90;;;;;;4995053;28;20008;-64
2021/06/24 08:48:03;;;;;;;;;;;40.60;25.10;;;;;;5012328;28;20004;-63
2021/06/24 08:50:29;;;;;;;;;;;38.20;24.80;;;;;;5013223;28;20261;-63
2021/06/24 08:52:55;;;;;;;;;;;35.80;25.60;;;;;;5012325;28;19921;-63
2021/06/24 08:55:21;;;;;;;;;;;34.00;26.50;;;;;;5012465;28;20209;-62
2021/06/24 08:57:47;;;;;;;;;;;32.60;27.40;;;;;;5012676;28;20297;-62
2021/06/24 09:00:14;;;;;;;;;;;31.40;28.00;;;;;;5012970;28;19918;-62
2021/06/24 09:02:40;;;;;;;;;;;30.30;28.70;;;;;;5012263;28;20356;-62
2021/06/24 09:05:06;;;;;;;;;;;29.50;29.50;;;;;;5012784;28;19918;-63
2021/06/24 09:07:45;;;;;;;;;;;29.10;30.70;;;;;;5012153;28;20274;-63
2021/06/24 09:10:11;;;;;;;;;;;28.80;31.40;;;;;;5012603;28;19945;-63
2021/06/24 09:12:48;;;;;;;;;;;28.60;32.20;;;;;;5012260;28;20424;-63
2021/06/24 09:15:14;;;;;;;;;;;28.50;33.50;;;;;;5012766;28;20425;-63
2021/06/24 09:17:41;;;;;;;;;;;28.70;33.90;;;;;;5012112;28;20017;-63
2021/06/24 09:20:19;;;;;;;;;;;28.80;34.30;;;;;;5012557;28;19917;-63
2021/06/24 09:23:03;;;;;;;;;;;29.10;34.40;;;;;;5012474;28;20011;-63
2021/06/24 09:25:28;;;;;;;;;;;29.00;34.00;;;;;;5012225;28;19968;-62
2021/06/24 09:27:54;;;;;;;;;;;28.50;33.80;;;;;;5012170;28;19917;-63
2021/06/24 09:30:28;;;;;;;;;;;27.90;34.10;;;;;;5011967;28;19917;-63
2021/06/24 09:32:53;;;;;;;;;;;27.30;34.60;;;;;;5012387;28;19976;-63
2021/06/24 09:35:20;;;;;;;;;;;26.60;34.80;;;;;;5011894;28;20337;-62
2021/06/24 09:38:08;;;;;;;;;;;25.90;35.80;;;;;;5012139;28;19972;-63
2021/06/24 09:40:35;;;;;;;;;;;25.40;37.00;;;;;;5011865;28;20302;-63
2021/06/24 09:43:00;;;;;;;;;;;25.10;38.10;;;;;;5012009;28;19921;-64
2021/06/24 09:45:26;;;;;;;;;;;25.00;38.40;;;;;;5012313;28;19922;-65
2021/06/24 09:48:05;;;;;;;;;;;25.10;39.10;;;;;;5011421;28;19945;-64
2021/06/24 09:50:31;;;;;;;;;;;25.10;39.00;;;;;;4994414;28;19975;-64
2021/06/24 09:53:13;;;;;;;;;;;25.10;38.90;;;;;;4993758;28;19926;-65
2021/06/24 09:55:39;;;;;;;;;;;24.80;38.90;;;;;;5012114;28;19955;-64
2021/06/24 09:58:15;;;;;;;;;;;24.50;40.00;;;;;;5009924;28;20009;-64
2021/06/24 10:00:51;;;;;;;;;;;24.40;40.60;;;;;;5009206;28;19940;-64
2021/06/24 10:03:16;;;;;;;;;;;24.40;40.40;;;;;;5010364;28;20336;-64
2021/06/24 10:05:43;;;;;;;;;;;24.40;41.00;;;;;;5009818;28;20020;-64
2021/06/24 10:08:09;;;;;;;;;;;24.60;41.70;;;;;;5011079;28;19926;-64
2021/06/24 10:10:35;;;;;;;;;;;24.90;42.10;;;;;;5011677;28;19986;-64
2021/06/24 10:13:01;;;;;;;;;;;25.30;41.30;;;;;;5011559;28;19917;-64
2021/06/24 10:15:28;;;;;;;;;;;25.30;41.10;;;;;;5011302;28;19932;-64
2021/06/24 10:17:55;;;;;;;;;;;25.20;40.80;;;;;;4993852;28;20273;-64
2021/06/24 10:20:21;;;;;;;;;;;25.10;40.90;;;;;;5011239;28;19921;-64
2021/06/24 10:22:53;;;;;;;;;;;25.00;41.10;;;;;;5011699;28;19921;-65
2021/06/24 10:25:19;;;;;;;;;;;24.90;41.20;;;;;;5011734;28;19941;-64
2021/06/24 10:27:45;;;;;;;;;;;24.80;41.50;;;;;;5010831;28;20008;-64
2021/06/24 10:30:15;;;;;;;;;;;24.70;42.00;;;;;;5011324;28;20008;-66
2021/06/24 10:32:42;;;;;;;;;;;24.80;42.50;;;;;;4993813;28;19921;-65
2021/06/24 10:35:21;;;;;;;;;;;24.90;42.60;;;;;;5011171;28;19921;-65
2021/06/24 10:37:50;;;;;;;;;;;25.20;43.10;;;;;;5010969;28;19917;-64
2021/06/24 10:40:24;;;;;;;;;;;25.50;42.70;;;;;;5011538;28;19933;-65
2021/06/24 10:42:50;;;;;;;;;;;25.80;42.90;;;;;;5010933;28;20012;-64
2021/06/24 10:45:16;;;;;;;;;;;26.00;42.60;;;;;;5011000;28;19918;-64
2021/06/24 10:47:42;;;;;;;;;;;26.10;42.00;;;;;;5011029;28;19917;-66
2021/06/24 10:50:26;;;;;;;;;;;26.00;42.00;;;;;;5010772;28;20405;-64
2021/06/24 10:52:52;;;;;;;;;;;25.80;41.80;;;;;;5011213;28;19921;-64
2021/06/24 10:55:34;;;;;;;;;;;25.50;41.60;;;;;;4993394;28;19923;-65
2021/06/24 10:58:01;;;;;;;;;;;25.20;41.90;;;;;;5011126;28;19921;-64
2021/06/24 11:00:29;;;;;;;;;;;24.80;42.40;;;;;;5010870;28;19924;-64
2021/06/24 11:02:57;;;;;;;;;;;24.40;42.50;;;;;;5011163;28;19957;-65
2021/06/24 11:05:24;;;;;;;;;;;24.10;43.50;;;;;;5011224;28;20291;-64
2021/06/24 11:07:53;;;;;;;;;;;23.90;43.90;;;;;;5010496;28;19952;-65
2021/06/24 11:10:20;;;;;;;;;;;23.60;44.30;;;;;;5010452;28;19917;-65
2021/06/24 11:12:53;;;;;;;;;;;23.40;45.00;;;;;;5010666;28;20281;-65
2021/06/24 11:15:37;;;;;;;;;;;23.20;45.10;;;;;;5011113;28;19917;-64
2021/06/24 11:18:03;;;;;;;;;;;23.10;45.70;;;;;;5014171;28;19949;-64
2021/06/24 11:20:42;;;;;;;;;;;23.00;46.30;;;;;;5014787;28;20004;-64
2021/06/24 11:23:26;;;;;;;;;;;23.00;46.50;;;;;;5013828;28;19957;-64
2021/06/24 11:26:05;;;;;;;;;;;23.00;46.80;;;;;;5013050;28;19921;-64
2021/06/24 11:28:47;;;;;;;;;;;23.10;47.10;;;;;;5012635;28;20355;-64
2021/06/24 11:31:14;;;;;;;;;;;23.20;47.20;;;;;;5013962;28;19917;-64
2021/06/24 11:33:48;;;;;;;;;;;23.30;47.20;;;;;;5014461;28;19918;-65
2021/06/24 11:36:16;;;;;;;;;;;23.30;47.40;;;;;;5014517;28;19919;-65
2021/06/24 11:38:46;;;;;;;;;;;23.40;47.00;;;;;;5013604;28;19917;-64
2021/06/24 11:41:12;;;;;;;;;;;23.50;47.30;;;;;;4996353;28;19945;-64
2021/06/24 11:43:39;;;;;;;;;;;23.60;47.20;;;;;;4995510;28;19937;-64
2021/06/24 11:46:05;;;;;;;;;;;23.70;47.10;;;;;;5013600;28;20274;-65
2021/06/24 11:48:31;;;;;;;;;;;23.80;46.60;;;;;;5013160;28;19925;-64
2021/06/24 12:04:56;;;;;;;;;;;25.50;45.30;;;;;;5013243;28;19918;-64
2021/06/24 12:07:21;;;;;;;;;;;25.40;44.90;;;;;;5012658;28;19952;-64
2021/06/24 12:09:49;;;;;;;;;;;25.30;44.30;;;;;;5013039;28;20333;-64
2021/06/24 12:12:19;;;;;;;;;;;25.10;44.70;;;;;;5012328;28;19922;-64
2021/06/24 12:14:45;;;;;;;;;;;25.10;44.50;;;;;;5013178;28;19917;-64
2021/06/24 12:17:25;;;;;;;;;;;25.10;44.90;;;;;;4995722;28;19924;-64
2021/06/24 12:20:07;;;;;;;;;;;25.30;44.90;;;;;;5013632;28;19925;-64
2021/06/24 12:22:36;;;;;;;;;;;25.60;44.90;;;;;;5013176;28;20004;-64
2021/06/24 12:25:04;;;;;;;;;;;25.70;44.10;;;;;;5013810;28;20381;-64
2021/06/24 12:27:37;;;;;;;;;;;25.60;43.50;;;;;;5012336;28;19924;-63
2021/06/24 12:30:06;;;;;;;;;;;25.40;44.00;;;;;;5013118;28;20454;-64
2021/06/24 12:32:32;;;;;;;;;;;25.40;44.40;;;;;;5013294;28;19949;-64
2021/06/24 12:34:58;;;;;;;;;;;25.40;44.70;;;;;;5013111;28;20364;-64
2021/06/24 12:37:27;;;;;;;;;;;25.60;45.30;;;;;;5013121;28;19918;-64
2021/06/24 12:39:53;;;;;;;;;;;25.80;44.80;;;;;;5013068;28;20370;-64
2021/06/24 12:42:19;;;;;;;;;;;25.90;45.00;;;;;;4973284;23;1815519;-70
2021/06/24 12:44:45;;;;;;;;;;;26.30;44.80;;;;;;5011730;28;20308;-73
2021/06/24 12:47:10;;;;;;;;;;;26.60;44.60;;;;;;5012513;28;19917;-71
2021/06/24 12:49:36;;;;;;;;;;;26.90;44.20;;;;;;5013253;28;19964;-73
2021/06/24 12:52:03;;;;;;;;;;;27.10;43.00;;;;;;4995720;28;20344;-72
2021/06/24 12:54:36;;;;;;;;;;;27.00;42.20;;;;;;5012692;28;20286;-73
2021/06/24 12:57:02;;;;;;;;;;;26.70;42.30;;;;;;4995428;28;20419;-72
2021/06/24 12:59:28;;;;;;;;;;;26.20;42.00;;;;;;5012651;28;19913;-72
2021/06/24 13:01:53;;;;;;;;;;;25.80;42.20;;;;;;5013144;28;19988;-72
2021/06/24 13:04:20;;;;;;;;;;;25.60;42.90;;;;;;4995393;28;20290;-72
2021/06/24 13:06:49;;;;;;;;;;;25.60;43.50;;;;;;4994685;28;19922;-72
2021/06/24 13:09:16;;;;;;;;;;;25.80;43.80;;;;;;4994941;28;19921;-73
2021/06/24 13:11:44;;;;;;;;;;;25.90;43.40;;;;;;5011289;28;19925;-74
2021/06/24 13:14:16;;;;;;;;;;;25.90;42.70;;;;;;4995078;28;19924;-73
2021/06/24 13:17:02;;;;;;;;;;;25.80;42.60;;;;;;5012552;28;20295;-73
2021/06/24 13:19:29;;;;;;;;;;;25.80;43.50;;;;;;5011911;28;19917;-73
2021/06/24 13:21:54;;;;;;;;;;;26.10;43.40;;;;;;5012792;28;19928;-72
2021/06/24 13:24:20;;;;;;;;;;;26.10;43.10;;;;;;5012020;28;19917;-73
2021/06/24 13:26:46;;;;;;;;;;;26.00;42.50;;;;;;5011061;28;20401;-73
2021/06/24 13:29:16;;;;;;;;;;;25.50;42.20;;;;;;4994784;28;19917;-73
2021/06/24 13:31:45;;;;;;;;;;;25.10;42.60;;;;;;4994546;28;20016;-73
2021/06/24 13:34:13;;;;;;;;;;;24.80;43.20;;;;;;4995454;28;20366;-73
2021/06/24 13:36:39;;;;;;;;;;;24.50;43.90;;;;;;4994011;28;19960;-73
2021/06/24 13:39:06;;;;;;;;;;;24.40;44.60;;;;;;5012016;28;19917;-73
2021/06/24 13:41:32;;;;;;;;;;;24.30;44.50;;;;;;4994080;28;20393;-69
2021/06/24 13:44:24;;;;;;;;;;;24.00;44.40;;;;;;4994410;28;19971;-72
2021/06/24 13:46:51;;;;;;;;;;;23.80;44.80;;;;;;4990238;28;19917;-73
2021/06/24 13:49:18;;;;;;;;;;;23.50;45.00;;;;;;5012257;28;20301;-72
2021/06/24 13:51:46;;;;;;;;;;;23.20;45.50;;;;;;5012053;28;19924;-72
2021/06/24 13:54:13;;;;;;;;;;;23.00;46.30;;;;;;4977859;28;20301;-72
2021/06/24 13:56:39;;;;;;;;;;;23.10;47.30;;;;;;5012035;28;19920;-73
2021/06/24 13:59:05;;;;;;;;;;;23.40;47.60;;;;;;5011453;28;19921;-72
2021/06/24 14:01:32;;;;;;;;;;;23.60;47.40;;;;;;4994350;28;19917;-71
2021/06/24 14:03:57;;;;;;;;;;;23.80;47.40;;;;;;5012005;28;19927;-68
2021/06/24 14:06:25;;;;;;;;;;;23.90;47.30;;;;;;4977652;28;19917;-68
2021/06/24 14:08:51;;;;;;;;;;;24.10;47.30;;;;;;4994070;28;19917;-68
2021/06/24 14:11:16;;;;;;;;;;;24.20;47.10;;;;;;5011612;28;19968;-68
2021/06/24 14:13:42;;;;;;;;;;;24.40;47.20;;;;;;5011522;28;20008;-68
2021/06/24 14:16:10;;;;;;;;;;;24.50;46.90;;;;;;5011933;28;20340;-68
2021/06/24 14:18:36;;;;;;;;;;;24.50;46.90;;;;;;4993604;28;19917;-68
2021/06/24 14:21:04;;;;;;;;;;;24.70;46.90;;;;;;5011805;28;19996;-67
2021/06/24 14:23:29;;;;;;;;;;;24.80;47.00;;;;;;5011104;28;19914;-68
2021/06/24 14:25:55;;;;;;;;;;;24.80;46.20;;;;;;4993925;28;20004;-68
2021/06/24 14:28:21;;;;;;;;;;;24.60;46.00;;;;;;4977637;28;20004;-68
2021/06/24 14:30:46;;;;;;;;;;;24.50;46.30;;;;;;4993744;28;20393;-68
2021/06/24 14:33:12;;;;;;;;;;;24.30;46.60;;;;;;5011505;28;19921;-67
2021/06/24 14:35:38;;;;;;;;;;;24.40;46.70;;;;;;5011612;28;19922;-68